Time;durP1;ratioP1;P1;durP2;ratioP2;P2;SDS_P1;SDS_P2;PMS_P1;PMS_P2;Temp;Humidity;BMP_temperature;BMP_pressure;BME280_temperature;BME280_humidity;BME280_pressure;Samples;Min_cycle;Max_cycle;Signal;HPM_P1;HPM_P2
2021/03/18 00:01:41;;;;;;;14.07;3.50;;;;;;;6.40;63.18;103007.16;5094512;28;20032;-81
2021/03/18 00:04:10;;;;;;;12.10;3.70;;;;;;;6.38;63.25;102988.69;5094689;28;20074;-81
2021/03/18 00:06:39;;;;;;;16.85;3.78;;;;;;;6.34;63.32;102991.16;5093767;28;20467;-81
2021/03/18 00:09:08;;;;;;;8.05;3.50;;;;;;;6.31;63.46;102989.31;5094401;28;20028;-81
2021/03/18 00:11:38;;;;;;;14.30;3.38;;;;;;;6.32;63.49;102993.75;5092875;28;20487;-81
2021/03/18 00:14:05;;;;;;;16.75;3.90;;;;;;;6.29;63.35;102984.03;5094747;28;20120;-81
2021/03/18 00:16:31;;;;;;;17.90;4.20;;;;;;;6.28;63.53;102981.31;5094266;28;20471;-81
2021/03/18 00:18:58;;;;;;;13.02;2.83;;;;;;;6.28;63.49;102973.41;5094793;28;20028;-81
2021/03/18 00:21:24;;;;;;;23.02;4.68;;;;;;;6.28;63.58;102965.50;5094298;28;20043;-81
2021/03/18 00:23:51;;;;;;;21.73;4.20;;;;;;;6.27;63.69;102963.75;5095159;28;20099;-81
2021/03/18 00:26:21;;;;;;;13.73;3.65;;;;;;;6.28;63.66;102969.06;5094105;28;20020;-81
2021/03/18 00:28:48;;;;;;;18.27;4.28;;;;;;;6.26;63.63;102961.97;5094890;28;20102;-82
2021/03/18 00:31:14;;;;;;;12.45;3.50;;;;;;;6.25;63.47;102955.78;5094313;28;20024;-81
2021/03/18 00:33:41;;;;;;;11.82;3.22;;;;;;;6.26;63.59;102956.69;5094358;28;20035;-81
2021/03/18 00:36:07;;;;;;;8.70;3.90;;;;;;;6.26;63.89;102957.56;5094419;28;20021;-81
2021/03/18 00:38:34;;;;;;;11.32;3.63;;;;;;;6.27;63.79;102962.00;5094212;28;20020;-81
2021/03/18 00:41:05;;;;;;;12.50;3.75;;;;;;;6.30;63.82;102945.41;5093603;28;20123;-81
2021/03/18 00:43:32;;;;;;;14.13;3.28;;;;;;;6.27;63.77;102942.69;5094385;28;20426;-81
2021/03/18 00:45:58;;;;;;;12.68;4.35;;;;;;;6.27;63.78;102947.97;5094339;28;20514;-81
2021/03/18 00:48:25;;;;;;;15.13;3.90;;;;;;;6.26;63.98;102947.03;5093827;28;20483;-81
2021/03/18 00:50:56;;;;;;;16.20;3.72;;;;;;;6.28;64.12;102944.44;5093907;28;20482;-81
2021/03/18 00:53:31;;;;;;;11.77;3.55;;;;;;;6.27;63.95;102935.66;5094355;28;20030;-81
2021/03/18 00:55:58;;;;;;;16.92;4.07;;;;;;;6.26;64.04;102940.91;5094132;28;20430;-81
2021/03/18 00:58:24;;;;;;;14.93;3.90;;;;;;;6.26;64.04;102951.44;5094318;28;20024;-81
2021/03/18 01:00:54;;;;;;;12.52;4.10;;;;;;;6.26;63.80;102954.94;5093938;28;20044;-82
2021/03/18 01:03:22;;;;;;;14.52;4.13;;;;;;;6.24;64.12;102959.28;5093789;28;20120;-81
2021/03/18 01:08:34;;;;;;;11.63;2.92;;;;;;;6.29;64.17;102973.50;5071702;27;20406;-81
2021/03/18 01:11:04;;;;;;;12.13;3.70;;;;;;;6.31;64.33;102971.78;5070722;28;20117;-81
2021/03/18 01:13:32;;;;;;;17.45;3.83;;;;;;;6.31;64.40;102963.88;5070815;28;20053;-81
2021/03/18 01:18:52;;;;;;;11.98;2.97;;;;;;;6.44;64.23;102972.16;5091175;28;20411;-82
2021/03/18 01:21:21;;;;;;;8.02;3.30;;;;;;;6.44;64.39;102977.44;5071162;28;20500;-82
2021/03/18 01:23:48;;;;;;;13.38;3.40;;;;;;;6.44;64.33;102973.06;5070626;28;20029;-82
2021/03/18 01:26:17;;;;;;;16.73;3.47;;;;;;;6.45;64.14;102972.22;5071381;28;20391;-82
2021/03/18 01:28:44;;;;;;;17.58;3.30;;;;;;;6.38;64.04;102970.25;5050331;28;20056;-82
2021/03/18 01:31:12;;;;;;;13.32;3.85;;;;;;;6.33;64.21;102971.84;5050816;28;20029;-82
2021/03/18 01:33:40;;;;;;;7.78;2.90;;;;;;;6.34;63.89;102970.97;5050543;28;20465;-82
2021/03/18 01:36:11;;;;;;;9.10;3.72;;;;;;;6.30;63.84;102969.09;5050533;28;20021;-82
2021/03/18 01:38:39;;;;;;;11.38;3.25;;;;;;;6.29;63.94;102962.03;5050448;28;20155;-83
2021/03/18 01:41:05;;;;;;;6.93;3.25;;;;;;;6.30;64.07;102954.19;5050286;28;20037;-82
2021/03/18 01:43:32;;;;;;;8.52;3.22;;;;;;;6.30;64.22;102948.91;5050409;28;20452;-82
2021/03/18 01:45:59;;;;;;;12.18;4.50;;;;;;;6.35;64.41;102951.72;5050294;28;20392;-82
2021/03/18 01:48:26;;;;;;;11.85;3.58;;;;;;;6.39;64.60;102948.34;5050157;28;20037;-82
2021/03/18 01:50:54;;;;;;;14.10;3.55;;;;;;;6.47;64.56;102941.56;5050135;28;20078;-82
2021/03/18 01:53:22;;;;;;;11.85;3.35;;;;;;;6.54;64.67;102940.03;5050085;28;20025;-82
2021/03/18 01:55:51;;;;;;;10.38;2.70;;;;;;;6.60;64.76;102939.31;5050161;28;20025;-82
2021/03/18 01:58:18;;;;;;;15.48;3.95;;;;;;;6.65;64.57;102921.88;5049816;28;20112;-82
2021/03/18 02:00:47;;;;;;;13.13;3.55;;;;;;;6.72;64.83;102921.22;5049993;28;20421;-82
2021/03/18 02:03:14;;;;;;;15.75;3.83;;;;;;;6.79;64.57;102923.19;5049791;28;20026;-82
2021/03/18 02:05:42;;;;;;;15.20;4.00;;;;;;;6.85;64.64;102905.78;5050445;28;20021;-82
2021/03/18 02:08:09;;;;;;;12.15;3.67;;;;;;;6.87;64.60;102904.09;5049355;28;20104;-83
2021/03/18 02:10:38;;;;;;;16.30;3.50;;;;;;;6.91;64.65;102896.28;5050048;28;20376;-83
2021/03/18 02:13:06;;;;;;;13.57;4.03;;;;;;;6.98;64.36;102902.66;5049474;28;20083;-83
2021/03/18 02:15:37;;;;;;;13.18;3.80;;;;;;;7.03;64.36;102908.94;5049965;28;20060;-82
2021/03/18 02:18:15;;;;;;;11.10;3.20;;;;;;;7.09;64.30;102906.47;5048967;28;20488;-82
2021/03/18 02:36:19;;;;;;;12.00;3.25;;;;;;;7.38;63.85;102903.72;5090708;27;20401;-82
2021/03/18 02:38:52;;;;;;;11.60;3.50;;;;;;;7.37;64.21;102890.50;5050408;28;20392;-81
2021/03/18 02:41:22;;;;;;;7.07;3.15;;;;;;;7.32;63.82;102893.00;5048924;28;20128;-81
2021/03/18 02:43:58;;;;;;;9.43;3.80;;;;;;;7.31;64.14;102883.31;5050359;28;20044;-81
2021/03/18 02:46:25;;;;;;;9.68;3.30;;;;;;;7.28;63.94;102880.63;5050126;28;20064;-81
2021/03/18 02:48:55;;;;;;;14.82;3.60;;;;;;;7.26;63.95;102871.75;5050149;28;20052;-81
2021/03/18 02:51:27;;;;;;;12.20;3.50;;;;;;;7.26;63.57;102866.47;5050015;28;20052;-81
2021/03/18 02:53:55;;;;;;;9.40;4.07;;;;;;;7.23;63.60;102855.88;5050209;28;20060;-81
2021/03/18 02:56:23;;;;;;;20.60;4.05;;;;;;;7.24;63.90;102861.19;5050445;28;20029;-82
2021/03/18 02:58:53;;;;;;;7.95;3.58;;;;;;;7.27;63.69;102863.00;5049911;28;20079;-81
2021/03/18 03:01:21;;;;;;;6.93;2.90;;;;;;;7.26;63.75;102866.47;5049632;28;20063;-81
2021/03/18 03:03:48;;;;;;;12.07;3.75;;;;;;;7.26;63.85;102874.38;5049893;28;20029;-81
2021/03/18 03:06:17;;;;;;;9.48;3.80;;;;;;;7.28;63.39;102878.84;5050273;28;20091;-82
2021/03/18 03:08:46;;;;;;;14.45;3.67;;;;;;;7.26;63.76;102877.03;5049789;28;20477;-81
2021/03/18 03:11:13;;;;;;;14.02;4.03;;;;;;;7.26;63.76;102871.75;5050148;28;20032;-81
2021/03/18 03:13:44;;;;;;;10.80;4.35;;;;;;;7.28;64.00;102870.94;5049693;28;20108;-81
2021/03/18 03:16:14;;;;;;;17.88;4.22;;;;;;;7.29;63.78;102871.84;5050219;28;20029;-81
2021/03/18 03:18:42;;;;;;;11.82;4.22;;;;;;;7.31;63.84;102871.88;5049526;28;20025;-82
2021/03/18 03:21:11;;;;;;;7.80;4.00;;;;;;;7.29;63.79;102863.94;5048968;28;20025;-81
2021/03/18 03:23:38;;;;;;;13.98;4.85;;;;;;;7.33;64.03;102864.88;5049268;28;20029;-81
2021/03/18 03:26:05;;;;;;;16.90;4.18;;;;;;;7.36;63.90;102851.78;5049655;28;20563;-81
2021/03/18 03:28:33;;;;;;;11.30;5.10;;;;;;;7.37;63.87;102859.75;5049529;28;20105;-81
2021/03/18 03:31:02;;;;;;;11.38;3.33;;;;;;;7.42;63.92;102851.94;5049905;28;20025;-82
2021/03/18 03:33:29;;;;;;;11.30;3.55;;;;;;;7.45;63.77;102852.94;5049014;28;20029;-81
2021/03/18 03:35:57;;;;;;;13.50;3.80;;;;;;;7.50;63.90;102860.97;5049652;28;20037;-81
2021/03/18 03:38:23;;;;;;;8.82;3.45;;;;;;;7.52;64.14;102864.50;5049257;28;20033;-81
2021/03/18 03:40:51;;;;;;;9.80;3.30;;;;;;;7.57;63.55;102867.28;5049255;28;20025;-82
2021/03/18 03:43:18;;;;;;;17.17;4.47;;;;;;;7.60;64.07;102873.53;5049415;28;20098;-81
2021/03/18 03:45:46;;;;;;;9.98;3.67;;;;;;;7.66;63.81;102874.53;5044909;28;20057;-82
2021/03/18 03:48:13;;;;;;;10.40;3.22;;;;;;;7.68;63.88;102870.19;5035743;28;20026;-81
2021/03/18 03:50:40;;;;;;;11.57;4.18;;;;;;;7.68;63.81;102864.91;5036102;28;20033;-81
2021/03/18 03:53:31;;;;;;;18.75;3.97;;;;;;;7.69;63.77;102859.66;5035966;28;20068;-82
2021/03/18 03:59:02;;;;;;;12.00;3.55;;;;;;;7.66;63.21;102851.66;5071334;28;20424;-82
2021/03/18 04:01:46;;;;;;;9.52;2.78;;;;;;;7.64;63.61;102855.13;5070295;28;20037;-81
2021/03/18 04:04:18;;;;;;;7.93;3.03;;;;;;;7.54;63.42;102852.25;5070291;28;20052;-81
2021/03/18 04:06:45;;;;;;;;;;;;;;;7.65;63.13;102844.63;5070278;28;20043;-81
2021/03/18 04:09:14;;;;;;;12.80;3.80;;;;;;;7.39;63.05;102844.84;5070602;28;19919;-81
2021/03/18 04:11:42;;;;;;;13.02;3.75;;;;;;;7.29;63.02;102837.56;5070102;28;20502;-81
2021/03/18 04:14:12;;;;;;;14.27;3.10;;;;;;;7.18;63.32;102832.00;5070379;28;20032;-81
2021/03/18 04:16:41;;;;;;;16.85;4.65;;;;;;;7.06;63.38;102827.28;5070314;28;20116;-81
2021/03/18 04:19:13;;;;;;;19.25;4.40;;;;;;;6.97;63.48;102827.06;5070225;28;20040;-81
2021/03/18 04:21:43;;;;;;;16.40;4.53;;;;;;;6.88;63.73;102824.16;5070449;28;20445;-81
2021/03/18 04:24:12;;;;;;;16.77;5.22;;;;;;;6.83;63.76;102823.16;5070208;28;20513;-82
2021/03/18 04:26:40;;;;;;;12.43;4.47;;;;;;;6.75;63.80;102815.03;5070798;28;20030;-81
2021/03/18 04:29:09;;;;;;;7.70;3.90;;;;;;;6.68;63.67;102811.34;5069694;28;20055;-81
2021/03/18 04:31:39;;;;;;;9.02;3.70;;;;;;;6.62;64.06;102805.91;5069886;28;20029;-81
2021/03/18 04:34:07;;;;;;;15.75;4.50;;;;;;;6.56;64.13;102813.63;5069949;28;20029;-81
2021/03/18 04:36:35;;;;;;;12.63;4.45;;;;;;;6.51;64.18;102810.88;5070128;28;20017;-81
2021/03/18 04:39:05;;;;;;;17.88;5.55;;;;;;;6.48;64.17;102814.31;5069641;28;20094;-81
2021/03/18 04:41:32;;;;;;;17.10;5.35;;;;;;;6.43;64.39;102805.38;5069648;28;20033;-81
2021/03/18 04:44:01;;;;;;;13.60;5.18;;;;;;;6.36;64.42;102800.78;5069389;28;20086;-81
2021/03/18 04:46:28;;;;;;;13.65;5.28;;;;;;;6.31;64.77;102805.91;5069863;28;20135;-81
2021/03/18 04:49:00;;;;;;;20.77;6.45;;;;;;;6.34;64.61;102802.47;5069200;28;20476;-81
2021/03/18 04:51:27;;;;;;;15.68;5.85;;;;;;;6.30;64.56;102800.59;5069369;28;20040;-81
2021/03/18 04:53:56;;;;;;;17.88;6.13;;;;;;;6.29;64.60;102802.38;5069453;28;20071;-81
2021/03/18 04:56:24;;;;;;;16.20;5.45;;;;;;;6.27;64.84;102803.16;5069054;28;20029;-80
2021/03/18 04:58:52;;;;;;;19.42;5.82;;;;;;;6.26;65.25;102793.47;5068954;28;20480;-81
2021/03/18 05:01:21;;;;;;;14.65;6.15;;;;;;;6.27;65.52;102805.81;5069241;28;20043;-81
2021/03/18 05:03:48;;;;;;;12.73;5.45;;;;;;;6.34;65.29;102802.47;5069038;28;20485;-81
2021/03/18 05:06:15;;;;;;;22.08;5.97;;;;;;;6.35;65.63;102799.00;5069241;28;20025;-81
2021/03/18 05:08:42;;;;;;;20.92;6.53;;;;;;;6.37;65.59;102799.94;5062485;28;20036;-81
2021/03/18 05:11:09;;;;;;;16.00;5.60;;;;;;;6.38;65.71;102787.66;5055987;28;20064;-81
2021/03/18 05:13:37;;;;;;;17.30;5.00;;;;;;;6.43;65.71;102797.50;5055830;28;20084;-81
2021/03/18 05:16:04;;;;;;;18.67;5.50;;;;;;;6.41;65.79;102799.19;5055529;28;20174;-81
2021/03/18 05:18:33;;;;;;;17.75;5.55;;;;;;;6.48;65.81;102808.16;5055578;28;20059;-81
2021/03/18 05:21:04;;;;;;;20.02;6.13;;;;;;;6.54;65.65;102815.34;5055900;28;20040;-81
2021/03/18 05:23:31;;;;;;;11.90;5.15;;;;;;;6.55;65.71;102814.50;5055756;28;20082;-81
2021/03/18 05:25:58;;;;;;;17.13;5.30;;;;;;;6.56;65.64;102805.75;5055705;28;20067;-81
2021/03/18 05:28:25;;;;;;;18.17;5.30;;;;;;;6.59;65.71;102812.00;5054687;28;20040;-81
2021/03/18 05:30:52;;;;;;;18.13;5.45;;;;;;;6.62;65.51;102808.56;5055531;28;20029;-81
2021/03/18 05:33:19;;;;;;;22.27;5.68;;;;;;;6.64;65.60;102799.84;5055452;28;20147;-81
2021/03/18 05:35:45;;;;;;;20.95;5.25;;;;;;;6.68;65.68;102800.81;5055463;28;20037;-81
2021/03/18 05:38:14;;;;;;;18.48;5.47;;;;;;;6.70;65.78;102809.63;5055219;28;20550;-81
2021/03/18 05:40:44;;;;;;;15.52;4.80;;;;;;;6.75;65.78;102809.78;5055575;28;20025;-81
2021/03/18 05:43:10;;;;;;;16.05;5.75;;;;;;;6.76;65.73;102801.91;5055235;28;20431;-81
2021/03/18 05:45:37;;;;;;;17.20;5.47;;;;;;;6.79;65.81;102801.09;5055059;28;20029;-81
2021/03/18 05:48:04;;;;;;;15.13;5.00;;;;;;;6.83;65.85;102818.78;5054545;28;20033;-81
2021/03/18 05:50:32;;;;;;;20.58;5.75;;;;;;;6.83;65.97;102823.16;5054929;28;20032;-81
2021/03/18 05:53:01;;;;;;;13.38;4.95;;;;;;;6.87;65.94;102799.56;5055173;28;20483;-81
2021/03/18 05:55:28;;;;;;;16.92;5.85;;;;;;;6.91;66.11;102800.53;5054162;28;20091;-81
2021/03/18 05:57:55;;;;;;;15.88;5.22;;;;;;;6.93;65.90;102799.72;5053315;28;20026;-81
2021/03/18 06:00:24;;;;;;;16.67;6.22;;;;;;;6.97;65.89;102798.06;5054412;28;20094;-81
2021/03/18 06:02:50;;;;;;;21.42;5.55;;;;;;;6.99;66.28;102795.47;5054268;28;20024;-81
2021/03/18 06:05:18;;;;;;;15.75;5.60;;;;;;;7.06;66.21;102784.25;5054499;28;20035;-81
2021/03/18 06:07:47;;;;;;;17.52;5.10;;;;;;;7.13;66.06;102781.78;5054506;28;20025;-82
2021/03/18 06:10:18;;;;;;;15.25;5.03;;;;;;;7.18;66.07;102781.00;5054235;28;20121;-82
2021/03/18 06:12:45;;;;;;;24.38;5.80;;;;;;;7.16;66.14;102772.19;5054620;28;20035;-81
2021/03/18 06:15:13;;;;;;;15.00;5.80;;;;;;;7.24;66.26;102775.91;5054528;28;20025;-83
2021/03/18 06:17:40;;;;;;;13.88;5.63;;;;;;;7.25;65.84;102777.69;5054118;28;20464;-82
2021/03/18 06:20:12;;;;;;;21.33;6.35;;;;;;;7.29;66.32;102771.66;5053767;28;20029;-82
2021/03/18 06:22:45;;;;;;;14.88;6.00;;;;;;;7.31;66.00;102763.78;5054431;28;20025;-82
2021/03/18 06:33:48;;;;;;;18.02;6.63;;;;;;;7.35;66.37;102744.53;5086106;28;20712;-83
2021/03/18 06:36:24;;;;;;;16.88;5.50;;;;;;;7.39;65.64;102731.47;5070680;28;20032;-82
2021/03/18 06:42:00;;;;;;;22.52;6.90;;;;;;;7.49;65.66;102735.22;5070685;28;20905;-84
2021/03/18 06:44:29;;;;;;;21.90;6.88;;;;;;;7.48;65.58;102736.06;5071042;28;20040;-84
2021/03/18 06:47:05;;;;;;;20.02;8.57;;;;;;;7.49;65.45;102737.84;5069554;28;20029;-84
2021/03/18 06:49:31;;;;;;;25.92;8.68;;;;;;;7.53;65.47;102733.53;5070761;28;20057;-84
2021/03/18 06:54:46;;;;;;;25.10;8.27;;;;;;;7.53;65.82;102725.63;5091036;27;20420;-82
2021/03/18 06:57:19;;;;;;;28.45;9.27;;;;;;;7.61;65.98;102722.31;5065165;28;20044;-83
2021/03/18 06:59:45;;;;;;;35.00;9.35;;;;;;;7.55;65.52;102711.59;5051040;28;20123;-83
2021/03/18 07:04:57;;;;;;;37.03;12.27;;;;;;;7.57;65.84;102704.59;5090770;27;20385;-85
2021/03/18 07:07:25;;;;;;;17.23;7.43;;;;;;;7.71;65.87;102712.84;5062551;28;20121;-83
2021/03/18 07:09:54;;;;;;;25.10;8.43;;;;;;;7.72;66.03;102698.78;5051152;28;20033;-82
2021/03/18 07:12:35;;;;;;;26.52;8.05;;;;;;;7.91;65.55;102712.34;5049904;28;20087;-83
2021/03/18 07:15:15;;;;;;;25.92;8.50;;;;;;;7.92;65.78;102708.88;5050811;28;20025;-83
2021/03/18 07:17:41;;;;;;;20.05;8.13;;;;;;;7.98;65.77;102710.75;5049934;28;20116;-82
2021/03/18 07:22:53;;;;;;;27.35;9.55;;;;;;;8.04;65.62;102714.41;5090380;28;20418;-82
2021/03/18 07:25:23;;;;;;;28.02;9.10;;;;;;;8.15;65.76;102716.38;5070854;28;20511;-84
2021/03/18 07:27:52;;;;;;;25.08;8.65;;;;;;;8.20;65.42;102718.25;5059763;28;20464;-84
2021/03/18 07:30:38;;;;;;;22.23;8.32;;;;;;;8.34;64.86;102715.00;5050660;28;20025;-83
2021/03/18 07:33:05;;;;;;;21.02;7.50;;;;;;;8.32;65.74;102707.03;5050381;28;20076;-83
2021/03/18 07:35:33;;;;;;;27.00;7.63;;;;;;;8.43;65.46;102710.75;5050442;28;20026;-83
2021/03/18 07:37:59;;;;;;;25.00;8.18;;;;;;;8.52;65.05;102711.84;5050112;28;20032;-83
2021/03/18 07:40:27;;;;;;;23.33;7.82;;;;;;;8.61;65.40;102713.75;5050454;28;20037;-83
2021/03/18 07:42:55;;;;;;;19.48;7.10;;;;;;;8.70;65.37;102709.53;5049734;28;20025;-84
2021/03/18 07:45:24;;;;;;;24.30;8.60;;;;;;;8.80;65.06;102714.97;5050339;28;20022;-83
2021/03/18 07:47:51;;;;;;;27.20;7.45;;;;;;;8.85;64.94;102721.25;5049717;28;20060;-84
2021/03/18 07:50:29;;;;;;;20.02;8.15;;;;;;;8.97;64.62;102705.59;5050053;28;20037;-81
2021/03/18 07:52:58;;;;;;;26.52;7.78;;;;;;;8.69;66.29;102704.22;5049837;28;20021;-84
2021/03/18 07:55:25;;;;;;;34.22;8.25;;;;;;;8.71;65.67;102697.19;5050556;28;20033;-84
2021/03/18 07:57:52;;;;;;;25.00;8.63;;;;;;;8.73;66.32;102683.19;5049570;28;20033;-84
2021/03/18 08:05:59;;;;;;;25.40;8.27;;;;;;;8.85;66.37;102695.69;5111250;27;20857;-82
2021/03/18 08:11:16;;;;;;;33.88;9.30;;;;;;;8.99;65.68;102685.34;5090675;28;20422;-82
2021/03/18 08:13:44;;;;;;;27.25;6.07;;;;;;;9.02;65.68;102688.06;5070622;28;20095;-82
2021/03/18 08:16:31;;;;;;;32.20;8.30;;;;;;;9.14;65.73;102686.47;5070052;28;20037;-82
2021/03/18 08:18:57;;;;;;;31.33;7.35;;;;;;;9.16;65.42;102684.72;5050145;28;20036;-81
2021/03/18 08:21:43;;;;;;;25.95;6.65;;;;;;;9.28;65.15;102690.19;5049993;28;20044;-82
2021/03/18 08:24:12;;;;;;;22.67;6.20;;;;;;;9.31;65.91;102682.31;5050178;28;20435;-82
2021/03/18 08:29:47;;;;;;;25.17;6.55;;;;;;;9.46;65.16;102681.66;5090665;27;20392;-81
2021/03/18 08:32:30;;;;;;;23.38;5.65;;;;;;;9.56;64.46;102690.63;5069949;28;20033;-81
2021/03/18 08:35:00;;;;;;;27.92;5.25;;;;;;;9.49;64.67;102692.25;5070690;28;20357;-81
2021/03/18 08:37:43;;;;;;;26.55;5.47;;;;;;;9.65;64.59;102693.38;5061748;28;20033;-82
2021/03/18 08:43:06;;;;;;;23.75;5.05;;;;;;;9.60;64.30;102707.44;5090469;27;21003;-83
2021/03/18 08:48:17;;;;;;;26.77;4.93;;;;;;;9.63;64.69;102704.81;5075839;28;20428;-82
2021/03/18 08:53:29;;;;;;;20.00;5.28;;;;;;;9.68;64.18;102709.31;5090561;27;20496;-82
2021/03/18 08:55:55;;;;;;;20.45;4.88;;;;;;;9.67;64.49;102707.53;5070447;28;20037;-81
2021/03/18 08:58:22;;;;;;;23.05;4.53;;;;;;;9.71;64.35;102709.34;5055526;28;20033;-82
2021/03/18 09:00:48;;;;;;;25.13;5.35;;;;;;;9.70;64.09;102707.56;5050053;28;20029;-83
2021/03/18 09:03:17;;;;;;;23.65;5.45;;;;;;;9.75;64.00;102709.41;5050052;28;20418;-83
2021/03/18 09:05:55;;;;;;;25.48;4.88;;;;;;;9.78;63.81;102712.06;5050661;28;20036;-84
2021/03/18 09:08:27;;;;;;;22.90;5.60;;;;;;;9.78;64.24;102710.31;5049965;28;20076;-84
2021/03/18 09:10:54;;;;;;;17.55;4.50;;;;;;;9.77;63.85;102697.03;5049528;28;20065;-84
2021/03/18 09:13:22;;;;;;;19.33;4.57;;;;;;;9.80;63.66;102691.81;5050375;28;20029;-83
2021/03/18 09:15:53;;;;;;;14.88;3.97;;;;;;;9.82;63.96;102696.25;5050006;28;20033;-83
2021/03/18 09:21:03;;;;;;;18.73;4.63;;;;;;;9.97;63.74;102692.91;5090300;27;20436;-82
2021/03/18 09:23:33;;;;;;;24.30;5.28;;;;;;;10.07;63.95;102695.66;5070904;28;20423;-82
2021/03/18 09:26:02;;;;;;;22.33;4.45;;;;;;;10.15;63.52;102694.88;5070309;28;20423;-82
2021/03/18 09:28:33;;;;;;;22.35;5.13;;;;;;;10.28;63.39;102689.72;5054613;28;20428;-82
2021/03/18 09:31:00;;;;;;;20.33;5.00;;;;;;;10.33;63.25;102683.59;5049905;28;20057;-82
2021/03/18 09:36:23;;;;;;;18.20;4.63;;;;;;;10.58;62.57;102689.19;5090324;28;20864;-82
2021/03/18 09:41:45;;;;;;;21.05;4.43;;;;;;;10.67;62.27;102683.97;5090457;27;20432;-83
2021/03/18 09:44:16;;;;;;;20.65;4.53;;;;;;;10.65;62.43;102680.44;5070420;28;20680;-83
2021/03/18 09:46:50;;;;;;;13.77;3.75;;;;;;;10.70;61.80;102682.22;5069208;28;20100;-83
2021/03/18 09:49:25;;;;;;;22.90;4.72;;;;;;;10.71;61.95;102674.28;5050602;28;20059;-83
2021/03/18 09:51:53;;;;;;;20.23;4.85;;;;;;;10.78;61.71;102665.50;5048740;28;20040;-83
2021/03/18 09:54:23;;;;;;;17.10;4.43;;;;;;;10.87;61.75;102666.47;5050779;28;20036;-83
2021/03/18 09:56:51;;;;;;;16.00;4.20;;;;;;;10.83;61.36;102665.56;5050085;28;20033;-83
2021/03/18 09:59:21;;;;;;;22.00;4.63;;;;;;;11.03;61.31;102659.50;5050554;28;20036;-83
2021/03/18 10:01:49;;;;;;;21.40;4.55;;;;;;;11.16;60.99;102656.06;5049855;28;20460;-83
2021/03/18 10:04:17;;;;;;;13.05;3.70;;;;;;;11.26;60.85;102663.19;5049241;28;20071;-83
2021/03/18 10:09:31;;;;;;;13.50;4.18;;;;;;;11.41;59.97;102661.53;5090998;28;20427;-82
2021/03/18 10:12:00;;;;;;;13.50;3.47;;;;;;;11.36;59.89;102660.59;5070434;28;20061;-82
2021/03/18 10:17:19;;;;;;;19.05;3.78;;;;;;;11.40;58.77;102659.72;5110812;27;20869;-82
2021/03/18 10:19:53;;;;;;;18.08;4.15;;;;;;;11.67;57.64;102658.13;5110820;28;20024;-83
2021/03/18 10:22:23;;;;;;;9.60;2.38;;;;;;;11.74;57.97;102643.97;5110090;28;20023;-82
2021/03/18 10:25:10;;;;;;;14.98;3.20;;;;;;;11.91;56.94;102644.03;5111119;28;20023;-83
2021/03/18 10:27:40;;;;;;;16.27;3.20;;;;;;;11.90;57.31;102635.19;5110534;28;20028;-83
2021/03/18 10:30:11;;;;;;;10.20;3.22;;;;;;;11.96;56.90;102629.94;5110633;28;20036;-82
2021/03/18 10:32:38;;;;;;;8.98;2.10;;;;;;;11.86;56.31;102632.50;5110245;28;20024;-82
2021/03/18 10:35:06;;;;;;;10.75;3.33;;;;;;;11.81;56.05;102624.53;5110570;28;20493;-82
2021/03/18 10:37:39;;;;;;;9.50;2.20;;;;;;;11.80;55.76;102628.06;5110207;28;20027;-82
2021/03/18 10:42:53;;;;;;;11.32;3.45;;;;;;;11.79;55.78;102631.63;5090206;28;20431;-82
2021/03/18 10:45:23;;;;;;;14.40;4.18;;;;;;;11.88;56.18;102621.00;5070607;28;20040;-83
2021/03/18 10:47:53;;;;;;;16.08;4.57;;;;;;;11.96;55.83;102611.34;5059964;28;20392;-81
2021/03/18 10:50:24;;;;;;;13.68;4.05;;;;;;;11.87;55.54;102618.34;5050586;28;20029;-82
2021/03/18 10:52:54;;;;;;;17.30;5.00;;;;;;;11.69;56.30;102620.06;5049718;28;20033;-82
2021/03/18 10:55:24;;;;;;;12.95;5.18;;;;;;;11.65;55.87;102621.81;5049424;28;20108;-82
2021/03/18 10:58:09;;;;;;;17.80;5.00;;;;;;;11.62;55.91;102624.44;5049575;28;20377;-82
2021/03/18 11:00:38;;;;;;;16.50;6.18;;;;;;;11.43;56.78;102636.75;5049963;28;20471;-82
2021/03/18 11:03:08;;;;;;;15.90;6.05;;;;;;;11.19;57.74;102631.31;5049698;28;20528;-82
2021/03/18 11:05:38;;;;;;;13.48;6.18;;;;;;;11.10;58.35;102630.38;5050080;28;20051;-82
2021/03/18 11:08:05;;;;;;;16.08;8.20;;;;;;;10.88;59.46;102623.13;5049667;28;20025;-82
2021/03/18 11:10:35;;;;;;;18.30;7.18;;;;;;;10.91;59.61;102618.75;5050171;28;20120;-82
2021/03/18 11:13:05;;;;;;;9.70;4.20;;;;;;;10.84;60.32;102622.22;5049693;28;20029;-82
2021/03/18 11:15:52;;;;;;;12.43;3.75;;;;;;;10.91;61.53;102613.44;5050000;28;20025;-83
2021/03/18 11:18:25;;;;;;;12.32;3.65;;;;;;;10.87;61.32;102622.25;5049289;28;20028;-83
2021/03/18 11:20:52;;;;;;;10.80;3.72;;;;;;;10.93;61.93;102619.66;5049921;28;20033;-84
2021/03/18 11:23:29;;;;;;;7.80;4.00;;;;;;;11.06;61.74;102617.97;5049386;28;20125;-84
2021/03/18 11:25:59;;;;;;;13.02;4.55;;;;;;;11.14;61.52;102604.75;5049494;28;20494;-84
2021/03/18 11:28:25;;;;;;;12.23;4.95;;;;;;;11.19;61.83;102616.28;5049413;28;20053;-84
2021/03/18 11:30:54;;;;;;;13.65;5.43;;;;;;;11.40;61.50;102609.31;5049816;28;20045;-84
2021/03/18 11:33:26;;;;;;;10.70;4.85;;;;;;;11.54;61.66;102610.28;5049687;28;20022;-84
2021/03/18 11:35:52;;;;;;;6.65;4.95;;;;;;;11.63;61.27;102615.59;5050261;28;20026;-84
2021/03/18 11:38:19;;;;;;;11.20;5.18;;;;;;;11.84;60.73;102607.72;5049427;28;20068;-84
2021/03/18 11:40:47;;;;;;;6.38;3.92;;;;;;;11.85;60.35;102605.09;5049259;28;20035;-83
2021/03/18 11:43:14;;;;;;;9.20;4.57;;;;;;;11.91;60.17;102599.78;5049001;28;20052;-83
2021/03/18 11:45:41;;;;;;;8.60;4.30;;;;;;;11.91;59.97;102597.13;5049563;28;20411;-84
2021/03/18 11:48:09;;;;;;;9.45;3.75;;;;;;;12.04;59.40;102591.88;5049012;28;20033;-84
2021/03/18 11:50:36;;;;;;;7.97;3.90;;;;;;;12.17;59.32;102591.00;5049355;28;20070;-84
2021/03/18 11:53:03;;;;;;;7.60;3.80;;;;;;;12.18;59.38;102591.91;5041767;28;20132;-83
2021/03/18 11:55:29;;;;;;;6.82;4.03;;;;;;;12.25;59.06;102594.56;5035904;28;20061;-83
2021/03/18 11:57:57;;;;;;;4.55;2.65;;;;;;;12.27;58.38;102582.16;5035736;28;20037;-83
2021/03/18 12:00:25;;;;;;;6.88;3.30;;;;;;;12.35;58.14;102583.91;5035770;28;20030;-83
2021/03/18 12:02:53;;;;;;;8.20;3.30;;;;;;;12.34;58.25;102587.50;5035314;28;20029;-83
2021/03/18 12:05:19;;;;;;;6.00;3.58;;;;;;;12.27;58.21;102587.47;5036515;28;20037;-83
2021/03/18 12:07:46;;;;;;;4.85;3.40;;;;;;;12.27;58.20;102576.84;5037288;28;20033;-84
2021/03/18 12:10:12;;;;;;;8.73;3.75;;;;;;;12.28;58.29;102567.97;5036136;28;20113;-83
2021/03/18 12:12:39;;;;;;;4.60;3.85;;;;;;;12.33;57.79;102564.44;5036435;28;20453;-83
2021/03/18 12:15:07;;;;;;;8.43;3.95;;;;;;;12.35;58.15;102567.97;5035598;28;20033;-82
2021/03/18 12:17:34;;;;;;;6.07;3.72;;;;;;;12.08;57.38;102567.09;5035263;28;20022;-83
2021/03/18 12:20:00;;;;;;;6.00;3.70;;;;;;;11.98;57.33;102567.03;5035509;28;20068;-84
2021/03/18 12:22:26;;;;;;;6.60;3.10;;;;;;;11.88;57.68;102567.88;5035409;28;20060;-83
2021/03/18 12:24:53;;;;;;;6.28;3.83;;;;;;;11.79;57.44;102559.91;5035430;28;20030;-83
2021/03/18 12:27:19;;;;;;;5.43;3.35;;;;;;;11.60;58.10;102557.19;5034961;28;20085;-83
2021/03/18 12:29:45;;;;;;;7.07;3.35;;;;;;;11.55;57.96;102551.00;5035459;28;20041;-83
2021/03/18 12:32:11;;;;;;;9.52;3.78;;;;;;;11.53;57.94;102550.09;5035137;28;20067;-83
2021/03/18 12:34:37;;;;;;;5.47;3.90;;;;;;;11.53;58.53;102543.91;5034928;28;20065;-83
2021/03/18 12:37:04;;;;;;;10.60;4.60;;;;;;;11.36;58.64;102543.84;5034890;28;20030;-83
2021/03/18 12:39:30;;;;;;;7.22;4.55;;;;;;;11.33;58.96;102540.28;5035139;28;20104;-83
2021/03/18 12:41:57;;;;;;;8.43;4.40;;;;;;;11.11;59.98;102546.38;5034805;28;20041;-83
2021/03/18 12:44:23;;;;;;;7.38;3.63;;;;;;;10.78;61.37;102551.50;5035021;28;20065;-82
2021/03/18 12:46:51;;;;;;;10.55;4.15;;;;;;;10.65;61.52;102537.28;5034479;28;20504;-83
2021/03/18 12:49:17;;;;;;;11.13;4.28;;;;;;;10.62;61.71;102531.94;5034385;28;20029;-83
2021/03/18 12:51:43;;;;;;;7.03;4.25;;;;;;;10.62;61.50;102516.03;5034480;28;20026;-83
2021/03/18 12:54:09;;;;;;;7.70;4.50;;;;;;;10.68;62.41;102524.03;5034923;28;20378;-83